Time;durP1;ratioP1;P1;durP2;ratioP2;P2;SDS_P1;SDS_P2;PMS_P1;PMS_P2;Temp;Humidity;BMP_temperature;BMP_pressure;BME280_temperature;BME280_humidity;BME280_pressure;Samples;Min_cycle;Max_cycle;Signal;HPM_P1;HPM_P2
2021/12/18 00:02:16;;;;;;;49.85;38.50;;;3.50;83.00;;;;;;10814447;33;20081;-70
2021/12/18 00:08:18;;;;;;;46.33;37.20;;;3.40;83.60;;;;;;10827343;33;20112;-70
2021/12/18 00:14:20;;;;;;;41.10;33.10;;;3.80;83.70;;;;;;10827373;33;20043;-71
2021/12/18 00:20:24;;;;;;;40.15;31.87;;;3.80;83.30;;;;;;10827434;33;20023;-71
2021/12/18 00:26:27;;;;;;;53.63;38.17;;;3.90;83.40;;;;;;10822662;33;20028;-70
2021/12/18 00:32:29;;;;;;;40.38;30.83;;;4.00;83.20;;;;;;10813632;33;20027;-71
2021/12/18 00:38:31;;;;;;;46.13;34.40;;;4.00;83.00;;;;;;10813388;33;20051;-71
2021/12/18 00:44:33;;;;;;;38.95;30.85;;;3.90;83.20;;;;;;10822192;33;20047;-71
2021/12/18 00:50:35;;;;;;;53.20;38.20;;;3.90;83.10;;;;;;10826310;32;20082;-71
2021/12/18 00:56:38;;;;;;;51.45;38.78;;;3.60;83.10;;;;;;10826187;33;20031;-71
2021/12/18 01:02:43;;;;;;;42.05;34.30;;;3.50;83.60;;;;;;10825920;32;20059;-71
2021/12/18 01:08:46;;;;;;;47.20;39.53;;;3.70;83.30;;;;;;10825168;33;20431;-70
2021/12/18 01:15:05;;;;;;;57.40;45.67;;;3.80;83.40;;;;;;10825638;33;20012;-71
2021/12/18 01:27:28;;;;;;;51.47;39.88;;;3.90;83.20;;;;;;10825245;33;20031;-71
2021/12/18 01:33:30;;;;;;;46.53;35.30;;;4.00;83.40;;;;;;10811906;33;20043;-71
2021/12/18 01:39:32;;;;;;;62.33;48.95;;;4.00;83.10;;;;;;10824886;33;20400;-71
2021/12/18 01:46:02;;;;;;;48.80;37.08;;;4.00;83.00;;;;;;10826456;27;20059;-71
2021/12/18 01:52:32;;;;;;;37.72;31.75;;;4.10;83.00;;;;;;10823647;33;20046;-71
2021/12/18 01:58:27;;;;;;;47.35;38.92;;;3.90;82.40;;;;;;10824453;33;20071;-71
2021/12/18 02:04:30;;;;;;;47.47;38.10;;;3.70;82.90;;;;;;10824349;33;20430;-70
2021/12/18 02:10:43;;;;;;;38.65;31.77;;;3.70;83.00;;;;;;10821460;33;20054;-70
2021/12/18 02:23:06;;;;;;;50.80;38.28;;;3.70;82.90;;;;;;10830756;32;20024;-71
2021/12/18 02:29:13;;;;;;;55.15;36.55;;;3.70;82.80;;;;;;10828475;33;20352;-71
2021/12/18 02:35:30;;;;;;;57.55;43.08;;;3.70;83.10;;;;;;10830238;33;20016;-71
2021/12/18 02:41:39;;;;;;;49.08;37.88;;;3.70;83.00;;;;;;10816788;32;20050;-71
2021/12/18 02:47:45;;;;;;;;;;;3.60;83.00;;;;;;10830230;33;20024;-71
2021/12/18 02:53:49;;;;;;;57.90;42.20;;;3.70;83.10;;;;;;10829754;33;19978;-70
2021/12/18 02:59:54;;;;;;;43.58;31.52;;;3.50;83.10;;;;;;10829456;33;20016;-71
2021/12/18 03:06:19;;;;;;;46.40;36.25;;;3.60;83.00;;;;;;10829269;33;20040;-70
2021/12/18 03:31:18;;;;;;;47.40;35.53;;;3.30;83.20;;;;;;10867162;32;20040;-71
2021/12/18 03:37:20;;;;;;;68.50;49.08;;;3.20;83.00;;;;;;10864944;32;20320;-71
2021/12/18 03:43:22;;;;;;;53.75;39.83;;;3.20;83.30;;;;;;10867102;32;20027;-71
2021/12/18 03:49:25;;;;;;;51.75;38.72;;;3.30;83.20;;;;;;10866933;32;20054;-71
2021/12/18 03:55:27;;;;;;;52.78;39.70;;;3.40;83.50;;;;;;10867837;32;20058;-70
2021/12/18 04:01:29;;;;;;;37.58;31.00;;;3.40;83.60;;;;;;10832500;32;20058;-71
2021/12/18 04:07:39;;;;;;;40.85;30.55;;;3.40;83.40;;;;;;10827355;33;20031;-71
2021/12/18 04:13:46;;;;;;;49.25;31.85;;;3.40;83.20;;;;;;10815060;33;20016;-75
2021/12/18 04:20:07;;;;;;;36.85;27.35;;;3.20;83.30;;;;;;10825043;33;20028;-75
2021/12/18 04:26:09;;;;;;;40.70;29.08;;;3.10;83.30;;;;;;10824763;33;20046;-75
2021/12/18 04:32:11;;;;;;;39.08;29.25;;;2.90;83.50;;;;;;10824646;32;20372;-75
2021/12/18 04:38:13;;;;;;;32.90;25.40;;;2.90;83.60;;;;;;10826829;32;20050;-75
2021/12/18 04:44:16;;;;;;;35.10;27.77;;;2.80;83.20;;;;;;10826593;33;20033;-71
2021/12/18 04:50:18;;;;;;;37.88;28.40;;;2.70;83.60;;;;;;10813258;33;20047;-71
2021/12/18 04:56:20;;;;;;;32.90;26.70;;;2.70;83.50;;;;;;10826192;33;20454;-71
2021/12/18 05:02:32;;;;;;;37.20;27.30;;;2.80;83.60;;;;;;10826168;33;20024;-71
2021/12/18 05:08:34;;;;;;;36.72;26.98;;;2.90;83.50;;;;;;10825918;33;20040;-70
2021/12/18 05:14:37;;;;;;;39.47;29.08;;;2.90;83.10;;;;;;10824323;33;20052;-71
2021/12/18 05:20:39;;;;;;;37.75;28.27;;;2.90;83.30;;;;;;10825528;33;20020;-71
2021/12/18 05:26:41;;;;;;;32.72;26.48;;;2.90;83.20;;;;;;10825719;33;20024;-71
2021/12/18 05:32:44;;;;;;;39.63;30.58;;;3.00;83.30;;;;;;10825291;33;20364;-71
2021/12/18 05:38:46;;;;;;;35.90;30.00;;;3.10;83.40;;;;;;10821297;33;20037;-71
2021/12/18 05:44:48;;;;;;;36.60;28.10;;;3.10;83.30;;;;;;10821762;33;20336;-71
2021/12/18 05:50:50;;;;;;;43.47;34.10;;;3.00;83.30;;;;;;10811222;32;20305;-71
2021/12/18 05:56:52;;;;;;;44.78;35.35;;;3.00;83.40;;;;;;10824601;33;20036;-71
2021/12/18 06:02:58;;;;;;;41.75;29.70;;;3.00;83.60;;;;;;10824330;33;20020;-71
2021/12/18 06:09:00;;;;;;;38.15;31.77;;;3.10;83.40;;;;;;10811200;33;20348;-70
2021/12/18 06:15:03;;;;;;;37.63;26.60;;;3.10;83.60;;;;;;10824088;33;20024;-71
2021/12/18 06:21:05;;;;;;;37.70;28.95;;;3.20;84.00;;;;;;10824670;33;20055;-71
2021/12/18 06:27:09;;;;;;;36.30;26.90;;;3.20;83.90;;;;;;10823844;33;20024;-71
2021/12/18 06:33:11;;;;;;;34.08;26.62;;;3.20;83.90;;;;;;10819114;32;20050;-71
2021/12/18 06:39:13;;;;;;;40.58;25.90;;;3.20;84.00;;;;;;10822952;32;20321;-71
2021/12/18 06:45:16;;;;;;;28.38;23.62;;;3.20;83.90;;;;;;10806234;33;20067;-71
2021/12/18 06:51:20;;;;;;;35.40;26.90;;;3.20;83.90;;;;;;10820358;33;20024;-71
2021/12/18 06:57:22;;;;;;;32.13;24.50;;;3.20;83.90;;;;;;10823425;33;20042;-71
2021/12/18 07:03:25;;;;;;;45.28;32.30;;;3.30;83.90;;;;;;10825075;32;20046;-70
2021/12/18 07:09:27;;;;;;;30.58;23.38;;;3.40;84.30;;;;;;10827586;33;20059;-70
2021/12/18 07:15:29;;;;;;;33.67;22.92;;;3.40;84.10;;;;;;10825022;33;20028;-70
2021/12/18 07:22:02;;;;;;;36.40;22.92;;;3.30;84.20;;;;;;10828970;33;20028;-70
2021/12/18 07:28:04;;;;;;;29.95;21.48;;;3.20;84.40;;;;;;10815671;33;20024;-70
2021/12/18 07:34:06;;;;;;;27.02;18.42;;;3.20;84.30;;;;;;10828610;33;20058;-70
2021/12/18 07:40:32;;;;;;;23.35;17.90;;;3.20;84.40;;;;;;10828460;32;20012;-69
2021/12/18 07:46:44;;;;;;;24.60;16.80;;;3.20;84.50;;;;;;10824286;33;20015;-70
2021/12/18 07:52:49;;;;;;;23.48;16.52;;;3.20;84.70;;;;;;10828213;32;20031;-69
2021/12/18 07:58:53;;;;;;;25.77;19.23;;;3.10;84.60;;;;;;10814906;33;20043;-71
2021/12/18 08:04:55;;;;;;;28.50;20.90;;;3.20;84.70;;;;;;10827819;33;20015;-69
2021/12/18 08:10:57;;;;;;;28.87;21.58;;;3.20;84.60;;;;;;10822932;33;20050;-71
2021/12/18 08:16:59;;;;;;;24.75;16.62;;;3.30;84.70;;;;;;10825836;32;20028;-69
2021/12/18 08:23:02;;;;;;;37.53;22.10;;;3.40;84.60;;;;;;10826986;33;20320;-69
2021/12/18 08:29:04;;;;;;;26.10;19.52;;;3.30;84.60;;;;;;10827064;32;20062;-71
2021/12/18 08:35:08;;;;;;;24.95;16.67;;;3.30;84.70;;;;;;10826831;33;20019;-69
2021/12/18 08:41:11;;;;;;;28.00;17.35;;;3.30;84.70;;;;;;10826879;32;20051;-69
2021/12/18 08:47:21;;;;;;;29.65;19.15;;;3.50;84.90;;;;;;10825854;33;20340;-69
2021/12/18 08:53:23;;;;;;;39.35;24.05;;;3.60;84.90;;;;;;10826353;33;20058;-71
2021/12/18 08:59:25;;;;;;;37.35;26.67;;;3.70;84.80;;;;;;10826368;33;20016;-71
2021/12/18 09:05:29;;;;;;;43.05;31.12;;;3.70;85.00;;;;;;10826028;33;20064;-71
2021/12/18 09:11:31;;;;;;;35.70;22.00;;;3.70;84.90;;;;;;10825857;33;20028;-70
2021/12/18 09:17:33;;;;;;;54.60;33.83;;;3.80;85.00;;;;;;10825981;33;20011;-70
2021/12/18 09:23:40;;;;;;;52.22;30.65;;;3.90;85.00;;;;;;10827388;32;20016;-71
2021/12/18 09:30:09;;;;;;;60.42;33.47;;;4.00;85.10;;;;;;10828035;32;20055;-71
2021/12/18 09:36:12;;;;;;;48.77;30.13;;;4.10;85.20;;;;;;10812448;33;20020;-71
2021/12/18 09:42:14;;;;;;;59.30;29.48;;;4.10;85.30;;;;;;10527916;27;10005419;-71
2021/12/18 09:48:16;;;;;;;56.10;34.10;;;4.20;85.50;;;;;;10824761;33;20024;-71
2021/12/18 09:54:23;;;;;;;57.22;38.47;;;4.30;85.70;;;;;;10824733;33;20055;-71
2021/12/18 10:00:26;;;;;;;43.70;26.08;;;4.40;86.00;;;;;;10820360;33;20380;-69
2021/12/18 10:06:45;;;;;;;82.75;47.10;;;4.60;86.10;;;;;;10810340;33;20016;-71
2021/12/18 10:13:02;;;;;;;56.42;29.40;;;4.70;86.00;;;;;;10825717;32;20416;-71
2021/12/18 10:19:04;;;;;;;121.10;47.05;;;4.70;86.40;;;;;;10824191;33;20011;-68
2021/12/18 10:25:08;;;;;;;98.35;42.88;;;4.80;86.50;;;;;;10823963;33;20376;-68
2021/12/18 10:31:10;;;;;;;46.35;27.77;;;4.90;86.60;;;;;;10823988;33;20023;-70
2021/12/18 10:37:25;;;;;;;59.72;30.52;;;4.90;86.70;;;;;;10812781;32;20097;-68
2021/12/18 10:44:03;;;;;;;40.10;24.10;;;5.00;86.80;;;;;;10830099;33;20356;-69
2021/12/18 10:50:23;;;;;;;68.95;23.55;;;5.10;86.70;;;;;;10829867;33;20020;-68
2021/12/18 10:56:37;;;;;;;243.70;57.67;;;5.20;86.80;;;;;;10816587;33;20046;-69
2021/12/18 11:02:43;;;;;;;90.87;37.03;;;5.20;87.20;;;;;;10829717;33;20328;-70
2021/12/18 11:09:07;;;;;;;119.00;39.42;;;5.20;87.40;;;;;;10829606;33;20042;-75
2021/12/18 11:15:09;;;;;;;55.80;28.40;;;5.20;87.70;;;;;;10829224;33;20071;-74
2021/12/18 11:21:13;;;;;;;50.38;29.00;;;5.30;87.70;;;;;;10828828;33;20380;-74
2021/12/18 11:27:17;;;;;;;44.30;23.75;;;5.20;87.80;;;;;;10828612;33;20047;-74
2021/12/18 11:33:20;;;;;;;42.10;24.87;;;5.20;88.00;;;;;;10828728;33;20019;-74
2021/12/18 11:39:27;;;;;;;46.60;26.25;;;5.30;87.80;;;;;;10826478;33;20042;-71
2021/12/18 11:46:18;;;;;;;47.05;27.23;;;5.40;87.80;;;;;;10828323;33;20047;-70
2021/12/18 11:52:20;;;;;;;46.97;29.75;;;5.50;87.70;;;;;;10830489;32;20058;-70
2021/12/18 11:58:28;;;;;;;64.85;31.25;;;5.50;87.60;;;;;;10829647;32;20062;-70
2021/12/18 12:05:05;;;;;;;33.40;21.70;;;5.60;87.40;;;;;;10829346;32;20011;-71
2021/12/18 12:12:00;;;;;;;49.08;23.90;;;5.60;87.60;;;;;;10816618;32;20023;-71
2021/12/18 12:18:04;;;;;;;103.43;37.60;;;5.60;87.60;;;;;;10829303;32;20032;-70
2021/12/18 12:24:40;;;;;;;30.88;19.50;;;5.60;87.50;;;;;;10828209;32;20032;-71
2021/12/18 12:30:56;;;;;;;33.83;19.65;;;5.60;87.50;;;;;;10827138;33;20042;-70
2021/12/18 12:37:23;;;;;;;36.55;22.15;;;5.70;87.50;;;;;;10827010;33;20063;-71
2021/12/18 12:43:29;;;;;;;26.27;18.40;;;5.70;87.40;;;;;;10827191;32;20024;-70
2021/12/18 12:49:31;;;;;;;35.05;21.98;;;5.80;87.30;;;;;;10814470;33;20046;-70
2021/12/18 12:55:42;;;;;;;30.60;19.85;;;5.80;87.30;;;;;;10826157;33;20015;-70
2021/12/18 13:01:45;;;;;;;32.50;20.62;;;5.70;87.50;;;;;;10825220;32;20308;-69
2021/12/18 13:08:10;;;;;;;28.38;17.70;;;5.70;87.40;;;;;;10812766;33;20023;-70
2021/12/18 13:14:13;;;;;;;49.00;26.90;;;5.70;87.80;;;;;;10825960;32;20024;-70
2021/12/18 13:20:20;;;;;;;40.12;24.52;;;5.70;87.70;;;;;;10791186;33;20050;-70
2021/12/18 13:26:28;;;;;;;24.98;15.65;;;5.70;87.70;;;;;;10788818;32;20035;-70
2021/12/18 13:32:31;;;;;;;25.23;19.37;;;5.70;87.70;;;;;;10788473;33;20033;-70
2021/12/18 13:38:35;;;;;;;27.62;19.67;;;5.70;87.60;;;;;;10788375;33;20054;-71
2021/12/18 13:44:46;;;;;;;29.90;19.10;;;5.70;87.60;;;;;;10788401;33;20236;-71
2021/12/18 13:50:58;;;;;;;24.23;16.35;;;5.70;87.60;;;;;;10775595;33;20082;-71
2021/12/18 13:57:00;;;;;;;27.60;17.27;;;5.80;87.50;;;;;;10775017;32;20020;-69
2021/12/18 14:03:03;;;;;;;36.00;23.10;;;5.90;87.40;;;;;;10788090;32;20043;-71
2021/12/18 14:09:14;;;;;;;36.42;21.23;;;5.80;87.30;;;;;;10788203;33;20047;-71
2021/12/18 14:15:17;;;;;;;30.23;19.65;;;5.80;87.30;;;;;;10828601;32;20328;-71
2021/12/18 14:21:40;;;;;;;25.62;17.77;;;5.80;87.30;;;;;;10831516;33;20294;-71
2021/12/18 14:27:53;;;;;;;29.58;18.45;;;5.80;87.40;;;;;;10830463;33;20023;-71
2021/12/18 14:34:01;;;;;;;24.98;15.77;;;5.70;87.40;;;;;;10830453;33;20023;-74
2021/12/18 14:40:04;;;;;;;30.05;18.00;;;5.70;87.40;;;;;;10828388;32;20020;-73
2021/12/18 14:46:20;;;;;;;42.20;23.80;;;5.70;87.30;;;;;;10817322;32;20024;-74
2021/12/18 14:52:22;;;;;;;30.90;18.80;;;5.70;87.30;;;;;;10827105;33;20046;-74
2021/12/18 14:58:32;;;;;;;24.50;15.35;;;5.70;87.20;;;;;;10812509;33;20011;-74
2021/12/18 15:04:34;;;;;;;25.27;15.60;;;5.70;87.20;;;;;;10816178;33;20038;-74
2021/12/18 15:10:56;;;;;;;24.98;15.43;;;5.70;87.20;;;;;;10829668;33;20028;-74
2021/12/18 15:17:04;;;;;;;35.33;23.38;;;5.60;87.20;;;;;;10826854;33;20171;-74
2021/12/18 15:23:06;;;;;;;62.25;30.35;;;5.70;87.30;;;;;;10825212;32;20047;-74
2021/12/18 15:29:11;;;;;;;24.00;17.20;;;5.70;87.30;;;;;;10828794;33;20402;-74
2021/12/18 15:35:13;;;;;;;21.12;12.85;;;5.70;87.20;;;;;;10826004;33;20012;-74
2021/12/18 15:41:16;;;;;;;24.05;17.02;;;5.70;87.20;;;;;;10828469;33;20032;-74
2021/12/18 15:47:37;;;;;;;25.33;15.45;;;5.70;87.10;;;;;;10828229;33;20086;-74
2021/12/18 15:53:39;;;;;;;20.55;13.70;;;5.60;87.10;;;;;;10828249;33;20046;-74
2021/12/18 15:59:41;;;;;;;37.95;21.67;;;5.60;87.20;;;;;;10828124;33;20020;-74
2021/12/18 16:05:44;;;;;;;18.73;11.95;;;5.60;87.30;;;;;;10827838;33;20028;-73
2021/12/18 16:11:46;;;;;;;16.77;13.85;;;5.60;87.10;;;;;;10825229;33;20039;-74
2021/12/18 16:17:49;;;;;;;24.67;18.55;;;5.50;87.20;;;;;;10814397;33;20435;-74
2021/12/18 16:23:51;;;;;;;20.27;14.80;;;5.50;87.20;;;;;;10814343;33;20016;-74
2021/12/18 16:29:53;;;;;;;30.23;23.45;;;5.60;87.10;;;;;;10827006;33;20031;-73
2021/12/18 16:35:56;;;;;;;22.75;17.45;;;5.40;87.10;;;;;;10825218;32;20052;-74
2021/12/18 16:41:58;;;;;;;15.63;11.90;;;5.40;87.10;;;;;;10826878;32;20062;-74
2021/12/18 16:48:03;;;;;;;17.58;12.05;;;5.40;87.10;;;;;;10826375;33;20050;-74
2021/12/18 16:54:05;;;;;;;17.17;12.95;;;5.40;87.10;;;;;;10813359;33;20016;-74
2021/12/18 17:00:08;;;;;;;60.20;29.27;;;5.30;87.10;;;;;;10825447;33;20028;-74
2021/12/18 17:06:10;;;;;;;23.23;17.90;;;5.20;87.00;;;;;;10824238;33;20439;-74
2021/12/18 17:12:12;;;;;;;44.35;26.17;;;5.20;87.10;;;;;;10825948;33;20047;-74
2021/12/18 17:18:15;;;;;;;31.83;23.80;;;5.20;87.00;;;;;;10825669;33;20046;-74
2021/12/18 17:24:17;;;;;;;27.20;20.98;;;5.10;87.00;;;;;;10825693;33;20017;-74
2021/12/18 17:30:20;;;;;;;30.88;23.33;;;5.10;87.00;;;;;;10825473;33;20332;-74
2021/12/18 17:36:22;;;;;;;36.75;25.65;;;5.10;87.10;;;;;;10825360;33;20016;-74
2021/12/18 17:42:28;;;;;;;127.45;37.28;;;5.00;87.00;;;;;;10829103;27;20435;-75
2021/12/18 17:48:35;;;;;;;31.60;24.20;;;4.90;87.00;;;;;;10824513;32;20054;-75
2021/12/18 17:54:37;;;;;;;39.72;29.45;;;4.90;87.00;;;;;;10824893;33;20028;-74
2021/12/18 18:00:39;;;;;;;27.27;19.73;;;4.70;87.00;;;;;;10811664;33;20055;-74
2021/12/18 18:06:41;;;;;;;25.65;19.50;;;4.70;87.00;;;;;;10824869;33;20324;-74
2021/12/18 18:13:06;;;;;;;22.45;16.02;;;4.60;87.00;;;;;;10823936;33;20024;-74
2021/12/18 18:19:08;;;;;;;23.85;18.45;;;4.60;87.00;;;;;;10826267;33;20042;-74
2021/12/18 18:25:11;;;;;;;18.35;12.63;;;4.60;87.00;;;;;;10824128;33;20028;-74
2021/12/18 18:31:13;;;;;;;32.80;22.67;;;4.60;87.00;;;;;;10819984;33;20024;-74
2021/12/18 18:37:16;;;;;;;32.65;23.50;;;4.60;86.90;;;;;;10823930;33;20404;-75
2021/12/18 18:43:24;;;;;;;123.00;40.40;;;4.60;86.80;;;;;;10819801;33;20396;-75
2021/12/18 18:49:27;;;;;;;32.53;25.45;;;4.40;86.70;;;;;;10822528;33;20028;-75
2021/12/18 18:55:46;;;;;;;30.37;23.20;;;4.30;86.70;;;;;;10824074;33;20439;-70
2021/12/18 19:01:55;;;;;;;89.80;40.25;;;4.10;86.70;;;;;;10826942;32;20032;-70
2021/12/18 19:07:57;;;;;;;31.52;25.70;;;3.90;86.30;;;;;;10829593;33;20024;-70
2021/12/18 19:13:59;;;;;;;25.35;22.23;;;3.70;86.40;;;;;;10829445;33;20451;-70
2021/12/18 19:20:08;;;;;;;29.15;21.10;;;3.60;86.70;;;;;;10829226;33;20024;-70
2021/12/18 19:26:11;;;;;;;;;;;3.50;86.60;;;;;;10816185;33;20070;-70
2021/12/18 19:32:13;;;;;;;36.17;22.37;;;3.60;86.70;;;;;;10827517;33;19946;-70
2021/12/18 19:38:17;;;;;;;26.27;20.85;;;3.70;86.70;;;;;;10828574;33;20042;-70
2021/12/18 19:44:20;;;;;;;16.25;13.43;;;3.70;86.70;;;;;;10815516;33;20042;-70
2021/12/18 19:50:23;;;;;;;26.55;19.08;;;3.80;86.50;;;;;;10827100;33;20324;-70
2021/12/18 19:56:25;;;;;;;44.15;28.80;;;3.80;86.40;;;;;;10828177;33;20058;-70
2021/12/18 20:02:32;;;;;;;49.90;30.02;;;3.70;86.40;;;;;;10828173;33;20385;-70
2021/12/18 20:08:37;;;;;;;30.20;22.15;;;3.70;86.40;;;;;;10826540;33;20036;-70
2021/12/18 20:14:39;;;;;;;22.45;17.05;;;3.60;86.50;;;;;;10827639;33;20051;-70
2021/12/18 20:20:43;;;;;;;30.30;23.42;;;3.70;86.50;;;;;;10827354;33;20028;-70
2021/12/18 20:26:45;;;;;;;23.38;18.35;;;3.70;86.40;;;;;;10827281;33;20020;-70
2021/12/18 20:32:49;;;;;;;39.03;25.12;;;3.60;86.40;;;;;;10827068;33;20054;-70
2021/12/18 20:38:51;;;;;;;28.92;18.50;;;3.50;86.30;;;;;;10826933;33;20042;-70
2021/12/18 20:44:53;;;;;;;30.50;22.65;;;3.50;86.40;;;;;;10826870;33;20042;-71
2021/12/18 20:50:56;;;;;;;33.15;21.85;;;3.50;86.40;;;;;;10826579;33;20051;-70
2021/12/18 20:56:59;;;;;;;29.60;17.65;;;3.50;86.40;;;;;;10813503;33;20051;-70
2021/12/18 21:03:05;;;;;;;34.85;23.85;;;3.50;86.30;;;;;;10826367;33;20020;-70
2021/12/18 21:09:13;;;;;;;23.05;16.15;;;3.50;86.20;;;;;;10826020;33;20016;-70
2021/12/18 21:15:15;;;;;;;38.35;22.17;;;3.40;86.20;;;;;;10826124;33;20012;-70
2021/12/18 21:21:20;;;;;;;23.40;18.95;;;3.40;86.30;;;;;;10824983;32;20027;-70
2021/12/18 21:27:23;;;;;;;27.20;19.55;;;3.40;86.30;;;;;;10825557;33;20057;-70
2021/12/18 21:33:46;;;;;;;28.55;16.42;;;3.40;86.30;;;;;;10825458;33;20302;-70
2021/12/18 21:39:49;;;;;;;39.50;23.55;;;3.30;86.20;;;;;;10824778;33;20174;-70
2021/12/18 21:45:51;;;;;;;27.67;19.75;;;3.40;86.20;;;;;;10825081;33;20024;-70
2021/12/18 21:51:53;;;;;;;15.82;11.45;;;3.20;86.10;;;;;;10821327;33;20430;-70
2021/12/18 21:57:57;;;;;;;18.92;13.55;;;3.30;86.30;;;;;;10824242;33;20408;-70
2021/12/18 22:04:02;;;;;;;37.55;16.98;;;3.40;86.30;;;;;;10824621;33;20047;-70
2021/12/18 22:10:05;;;;;;;21.87;16.45;;;3.40;86.20;;;;;;10824495;33;20040;-70
2021/12/18 22:16:08;;;;;;;25.77;19.85;;;3.30;86.10;;;;;;10822037;33;20046;-70
2021/12/18 22:22:14;;;;;;;40.55;17.45;;;3.30;86.10;;;;;;10824316;33;20015;-70
2021/12/18 22:28:16;;;;;;;25.45;19.85;;;3.30;86.10;;;;;;10811117;33;20393;-70
2021/12/18 22:34:18;;;;;;;39.45;19.37;;;3.10;86.00;;;;;;10827435;32;20019;-70
2021/12/18 22:40:21;;;;;;;21.48;15.25;;;3.00;86.10;;;;;;10830420;33;20023;-70
2021/12/18 22:46:23;;;;;;;14.90;11.35;;;2.90;86.20;;;;;;10826608;33;20028;-70
2021/12/18 22:52:28;;;;;;;17.52;12.30;;;3.00;86.30;;;;;;10827301;33;20023;-71
2021/12/18 22:58:31;;;;;;;29.00;17.33;;;3.00;86.20;;;;;;10829920;33;20016;-70
2021/12/18 23:04:33;;;;;;;49.85;20.90;;;3.10;86.20;;;;;;10827756;33;20016;-70
2021/12/18 23:10:37;;;;;;;48.67;21.62;;;2.90;85.90;;;;;;10829507;33;20051;-75
2021/12/18 23:22:56;;;;;;;28.35;13.45;;;2.90;86.30;;;;;;10829186;33;20298;-75
2021/12/18 23:29:06;;;;;;;20.88;14.87;;;3.00;86.00;;;;;;10826069;33;20020;-75
2021/12/18 23:35:08;;;;;;;;;;;2.90;86.00;;;;;;10829242;33;20032;-75
2021/12/18 23:41:10;;;;;;;24.00;14.55;;;2.90;86.10;;;;;;10828830;32;20282;-75
2021/12/18 23:47:14;;;;;;;23.67;14.57;;;2.80;86.10;;;;;;10827968;32;20043;-70
2021/12/18 23:53:16;;;;;;;19.10;15.05;;;2.80;86.10;;;;;;10815310;33;20024;-70
2021/12/18 23:59:18;;;;;;;13.10;9.32;;;2.70;86.10;;;;;;10824118;33;20384;-70
